createdAt,value
2022-11-01T00:01:39.055Z,6.28
2022-11-01T00:04:05.907Z,6.55
2022-11-01T00:06:32.503Z,5.93
2022-11-01T00:08:59.162Z,6.00
2022-11-01T00:11:25.729Z,6.18
2022-11-01T00:13:52.438Z,7.43
2022-11-01T00:16:20.344Z,6.90
2022-11-01T00:18:47.420Z,6.88
2022-11-01T00:21:15.024Z,6.03
2022-11-01T00:23:41.997Z,7.15
2022-11-01T00:26:13.706Z,6.50
2022-11-01T00:31:10.261Z,6.95
2022-11-01T00:33:39.537Z,6.47
2022-11-01T00:36:07.378Z,7.05
2022-11-01T00:38:34.612Z,6.30
2022-11-01T00:41:03.762Z,6.43
2022-11-01T00:43:34.888Z,6.90
2022-11-01T00:46:02.150Z,7.18
2022-11-01T00:48:28.766Z,7.20
2022-11-01T00:50:55.636Z,6.65
2022-11-01T00:53:22.865Z,6.32
2022-11-01T00:55:49.514Z,6.25
2022-11-01T00:58:16.472Z,6.25
2022-11-01T01:00:43.120Z,7.10
2022-11-01T01:03:10.106Z,6.70
2022-11-01T01:05:37.000Z,6.70
2022-11-01T01:08:03.799Z,7.18
2022-11-01T01:10:30.652Z,6.68
2022-11-01T01:12:57.382Z,6.72
2022-11-01T01:15:24.177Z,6.82
2022-11-01T01:17:50.748Z,6.18
2022-11-01T01:20:17.409Z,6.43
2022-11-01T01:22:44.035Z,5.82
2022-11-01T01:25:11.409Z,5.93
2022-11-01T01:27:38.445Z,5.97
2022-11-01T01:30:07.661Z,6.45
2022-11-01T01:32:34.904Z,6.07
2022-11-01T01:35:01.837Z,6.10
2022-11-01T01:37:28.436Z,5.93
2022-11-01T01:39:55.059Z,6.43
2022-11-01T01:42:30.484Z,5.55
2022-11-01T01:44:57.033Z,6.35
2022-11-01T01:47:33.695Z,5.63
2022-11-01T01:50:13.009Z,5.43
2022-11-01T01:52:54.764Z,5.85
2022-11-01T01:57:51.343Z,5.00
2022-11-01T02:00:18.094Z,5.63
2022-11-01T02:02:45.080Z,5.68
2022-11-01T02:05:31.611Z,6.15
2022-11-01T02:07:59.344Z,5.78
2022-11-01T02:10:27.163Z,5.20
2022-11-01T02:12:53.814Z,5.07
2022-11-01T02:15:24.911Z,5.28
2022-11-01T02:18:01.412Z,5.18
2022-11-01T02:20:54.828Z,5.70
2022-11-01T02:23:45.796Z,5.38
2022-11-01T02:26:21.643Z,4.88
2022-11-01T02:29:14.338Z,5.35
2022-11-01T02:32:11.690Z,5.50
2022-11-01T02:34:50.242Z,4.70
2022-11-01T02:37:29.761Z,5.07
2022-11-01T02:40:03.759Z,5.00
2022-11-01T02:42:36.979Z,5.45
2022-11-01T02:45:09.092Z,4.82
2022-11-01T02:47:36.562Z,5.03
2022-11-01T02:50:07.747Z,5.25
2022-11-01T02:52:38.250Z,4.82
2022-11-01T02:55:29.786Z,5.53
